Hilly, Louisiana
Current Conditions -  °F | °C
As of 10:15 AM on Friday 19 Dec 2014 (Local Time) from KRSN Reporting Station
Light Rain Light Rain  
Wind Chill: 42°   Ceiling: 700
Heat Index: 46°   Visibility: 10mi
Dew Point: 46°   Wind: 9mph
Humidity: 100%   Direction: 30°NNE
Pressure: 30.25"   Gusts: NA
Location:  32.6988°N, 92.6981°W
Report Text: KRSN 191615Z AUTO 03008KT 10SM -RA BKN007 BKN016 OVC024 08/08 A3025 RMK AO2 T00800080
Loading
Personal Weather Stations






























Interactive Weather Map New forecast layout! Learn more

10-Day Weather Forecast

Advertisements
Track Severe Weather on mobile